sensor_id;sensor_type;location;lat;lon;timestamp;pressure;altitude;pressure_sealevel;temperature;humidity
54854;BME280;40747;49.480;8.658;2024-02-23T00:01:26;98188.00;;;8.69;76.67
54854;BME280;40747;49.480;8.658;2024-02-23T00:03:52;98191.25;;;8.58;76.16
54854;BME280;40747;49.480;8.658;2024-02-23T00:06:20;98200.44;;;8.65;75.99
54854;BME280;40747;49.480;8.658;2024-02-23T00:08:48;98199.13;;;8.58;75.59
54854;BME280;40747;49.480;8.658;2024-02-23T00:11:14;98229.06;;;8.54;77.22
54854;BME280;40747;49.480;8.658;2024-02-23T00:13:40;98215.53;;;8.46;75.77
54854;BME280;40747;49.480;8.658;2024-02-23T00:16:05;98223.56;;;8.43;75.69
54854;BME280;40747;49.480;8.658;2024-02-23T00:18:31;98229.44;;;8.48;75.74
54854;BME280;40747;49.480;8.658;2024-02-23T00:20:57;98221.78;;;8.59;76.54
54854;BME280;40747;49.480;8.658;2024-02-23T00:23:23;98244.47;;;8.60;76.79
54854;BME280;40747;49.480;8.658;2024-02-23T00:25:49;98245.25;;;8.62;76.66
54854;BME280;40747;49.480;8.658;2024-02-23T00:28:15;98255.22;;;8.72;76.78
54854;BME280;40747;49.480;8.658;2024-02-23T00:30:41;98252.84;;;8.67;77.06
54854;BME280;40747;49.480;8.658;2024-02-23T00:33:08;98257.41;;;8.79;77.28
54854;BME280;40747;49.480;8.658;2024-02-23T00:35:35;98259.72;;;8.53;78.31
54854;BME280;40747;49.480;8.658;2024-02-23T00:38:02;98258.50;;;8.43;79.87
54854;BME280;40747;49.480;8.658;2024-02-23T00:40:28;98271.28;;;8.33;80.45
54854;BME280;40747;49.480;8.658;2024-02-23T00:42:54;98269.34;;;8.21;79.85
54854;BME280;40747;49.480;8.658;2024-02-23T00:45:20;98289.72;;;8.16;80.41
54854;BME280;40747;49.480;8.658;2024-02-23T00:47:47;98298.50;;;8.15;82.49
54854;BME280;40747;49.480;8.658;2024-02-23T00:50:14;98294.81;;;8.01;81.37
54854;BME280;40747;49.480;8.658;2024-02-23T00:52:40;98291.19;;;8.04;80.83
54854;BME280;40747;49.480;8.658;2024-02-23T00:55:06;98290.38;;;7.86;80.07
54854;BME280;40747;49.480;8.658;2024-02-23T00:57:34;98285.66;;;7.93;81.34
54854;BME280;40747;49.480;8.658;2024-02-23T01:00:02;98273.22;;;7.80;81.41
54854;BME280;40747;49.480;8.658;2024-02-23T01:02:31;98243.28;;;7.51;81.99
54854;BME280;40747;49.480;8.658;2024-02-23T01:04:58;98277.16;;;7.71;82.20
54854;BME280;40747;49.480;8.658;2024-02-23T01:07:24;98268.38;;;7.73;80.97
54854;BME280;40747;49.480;8.658;2024-02-23T01:09:50;98276.25;;;7.73;81.95
54854;BME280;40747;49.480;8.658;2024-02-23T01:12:16;98280.31;;;7.78;81.24
54854;BME280;40747;49.480;8.658;2024-02-23T01:14:42;98282.22;;;7.75;82.07
54854;BME280;40747;49.480;8.658;2024-02-23T01:17:09;98287.38;;;7.76;81.79
54854;BME280;40747;49.480;8.658;2024-02-23T01:19:35;98299.81;;;7.73;82.50
54854;BME280;40747;49.480;8.658;2024-02-23T01:22:00;98289.66;;;7.66;82.71
54854;BME280;40747;49.480;8.658;2024-02-23T01:24:27;98299.44;;;7.63;82.87
54854;BME280;40747;49.480;8.658;2024-02-23T01:26:56;98285.03;;;7.54;83.45
54854;BME280;40747;49.480;8.658;2024-02-23T01:29:25;98290.81;;;7.61;82.92
54854;BME280;40747;49.480;8.658;2024-02-23T01:31:51;98294.03;;;7.66;82.66
54854;BME280;40747;49.480;8.658;2024-02-23T01:34:18;98304.19;;;7.72;83.19
54854;BME280;40747;49.480;8.658;2024-02-23T01:36:44;98314.53;;;7.75;84.02
54854;BME280;40747;49.480;8.658;2024-02-23T01:39:11;98317.00;;;7.61;84.31
54854;BME280;40747;49.480;8.658;2024-02-23T01:41:37;98327.19;;;7.49;84.06
54854;BME280;40747;49.480;8.658;2024-02-23T01:44:03;98331.75;;;7.46;82.37
54854;BME280;40747;49.480;8.658;2024-02-23T01:46:30;98328.25;;;7.45;83.06
54854;BME280;40747;49.480;8.658;2024-02-23T01:48:56;98337.50;;;7.52;82.69
54854;BME280;40747;49.480;8.658;2024-02-23T01:51:24;98364.41;;;7.56;81.27
54854;BME280;40747;49.480;8.658;2024-02-23T01:53:50;98407.41;;;7.52;80.82
54854;BME280;40747;49.480;8.658;2024-02-23T01:56:17;98425.47;;;7.02;83.06
54854;BME280;40747;49.480;8.658;2024-02-23T01:58:46;98421.03;;;6.65;84.18
54854;BME280;40747;49.480;8.658;2024-02-23T02:01:13;98431.94;;;6.55;86.73
54854;BME280;40747;49.480;8.658;2024-02-23T02:03:39;98428.22;;;6.61;86.38
54854;BME280;40747;49.480;8.658;2024-02-23T02:06:10;98421.97;;;6.45;86.00
54854;BME280;40747;49.480;8.658;2024-02-23T02:08:36;98423.84;;;6.41;85.57
54854;BME280;40747;49.480;8.658;2024-02-23T02:11:03;98427.88;;;6.29;86.08
54854;BME280;40747;49.480;8.658;2024-02-23T02:13:30;98421.16;;;6.43;86.97
54854;BME280;40747;49.480;8.658;2024-02-23T02:15:58;98415.41;;;6.55;86.49
54854;BME280;40747;49.480;8.658;2024-02-23T02:18:25;98400.06;;;6.47;85.58
54854;BME280;40747;49.480;8.658;2024-02-23T02:20:54;98416.13;;;6.59;86.74
54854;BME280;40747;49.480;8.658;2024-02-23T02:23:21;98395.66;;;6.48;85.60
54854;BME280;40747;49.480;8.658;2024-02-23T02:25:53;98404.94;;;6.55;85.22
54854;BME280;40747;49.480;8.658;2024-02-23T02:28:19;98417.88;;;6.58;85.69
54854;BME280;40747;49.480;8.658;2024-02-23T02:30:46;98425.28;;;6.67;84.68
54854;BME280;40747;49.480;8.658;2024-02-23T02:33:12;98428.50;;;6.74;86.87
54854;BME280;40747;49.480;8.658;2024-02-23T02:35:39;98436.34;;;6.74;85.42
54854;BME280;40747;49.480;8.658;2024-02-23T02:38:05;98438.66;;;6.80;86.91
54854;BME280;40747;49.480;8.658;2024-02-23T02:40:31;98441.88;;;6.87;85.79
54854;BME280;40747;49.480;8.658;2024-02-23T02:42:57;98433.16;;;6.86;85.93
54854;BME280;40747;49.480;8.658;2024-02-23T02:45:23;98432.97;;;6.91;85.80
54854;BME280;40747;49.480;8.658;2024-02-23T02:47:49;98429.19;;;6.97;85.17
54854;BME280;40747;49.480;8.658;2024-02-23T02:50:16;98430.69;;;7.02;84.33
54854;BME280;40747;49.480;8.658;2024-02-23T02:52:42;98429.47;;;7.10;84.74
54854;BME280;40747;49.480;8.658;2024-02-23T02:55:08;98434.59;;;7.13;84.60
54854;BME280;40747;49.480;8.658;2024-02-23T02:57:35;98409.84;;;7.01;83.85
54854;BME280;40747;49.480;8.658;2024-02-23T03:00:04;98409.47;;;7.09;85.26
54854;BME280;40747;49.480;8.658;2024-02-23T03:02:37;98403.66;;;7.02;83.21
54854;BME280;40747;49.480;8.658;2024-02-23T03:05:02;98410.13;;;6.95;82.95
54854;BME280;40747;49.480;8.658;2024-02-23T03:07:28;98417.97;;;6.95;83.21
54854;BME280;40747;49.480;8.658;2024-02-23T03:09:54;98395.69;;;6.86;83.27
54854;BME280;40747;49.480;8.658;2024-02-23T03:12:21;98408.06;;;7.01;81.54
54854;BME280;40747;49.480;8.658;2024-02-23T03:14:47;98403.44;;;7.07;82.83
54854;BME280;40747;49.480;8.658;2024-02-23T03:17:13;98409.75;;;7.02;81.51
54854;BME280;40747;49.480;8.658;2024-02-23T03:19:39;98411.00;;;7.13;82.32
54854;BME280;40747;49.480;8.658;2024-02-23T03:22:05;98418.94;;;7.11;82.44
54854;BME280;40747;49.480;8.658;2024-02-23T03:24:31;98416.97;;;7.16;81.87
54854;BME280;40747;49.480;8.658;2024-02-23T03:26:57;98416.72;;;7.21;83.03
54854;BME280;40747;49.480;8.658;2024-02-23T03:29:23;98424.16;;;7.30;83.74
54854;BME280;40747;49.480;8.658;2024-02-23T03:31:53;98426.81;;;7.48;84.02
54854;BME280;40747;49.480;8.658;2024-02-23T03:34:19;98422.00;;;7.38;84.28
54854;BME280;40747;49.480;8.658;2024-02-23T03:36:45;98411.06;;;7.30;83.73
54854;BME280;40747;49.480;8.658;2024-02-23T03:39:11;98408.75;;;7.42;83.53
54854;BME280;40747;49.480;8.658;2024-02-23T03:41:37;98409.28;;;7.31;84.01
54854;BME280;40747;49.480;8.658;2024-02-23T03:44:04;98410.44;;;7.25;85.19
54854;BME280;40747;49.480;8.658;2024-02-23T03:46:30;98401.16;;;7.18;84.88
54854;BME280;40747;49.480;8.658;2024-02-23T03:48:56;98406.47;;;7.35;83.57
54854;BME280;40747;49.480;8.658;2024-02-23T03:51:23;98406.28;;;7.38;82.78
54854;BME280;40747;49.480;8.658;2024-02-23T03:53:49;98414.84;;;7.42;81.90
54854;BME280;40747;49.480;8.658;2024-02-23T03:56:16;98423.25;;;7.49;81.87
54854;BME280;40747;49.480;8.658;2024-02-23T03:58:41;98426.59;;;7.52;82.28
54854;BME280;40747;49.480;8.658;2024-02-23T04:01:07;98414.19;;;7.56;82.74
54854;BME280;40747;49.480;8.658;2024-02-23T04:03:33;98421.75;;;7.62;84.16
54854;BME280;40747;49.480;8.658;2024-02-23T04:05:58;98414.19;;;7.56;83.93
54854;BME280;40747;49.480;8.658;2024-02-23T04:08:24;98421.44;;;7.51;85.63
54854;BME280;40747;49.480;8.658;2024-02-23T04:10:50;98410.94;;;7.51;84.77
54854;BME280;40747;49.480;8.658;2024-02-23T04:13:17;98423.06;;;7.53;83.70
54854;BME280;40747;49.480;8.658;2024-02-23T04:15:46;98438.06;;;7.50;85.49
54854;BME280;40747;49.480;8.658;2024-02-23T04:18:12;98434.03;;;7.43;85.04
54854;BME280;40747;49.480;8.658;2024-02-23T04:20:38;98419.56;;;7.35;84.46
54854;BME280;40747;49.480;8.658;2024-02-23T04:23:04;98431.06;;;7.31;84.19
54854;BME280;40747;49.480;8.658;2024-02-23T04:25:29;98435.75;;;7.25;82.91
54854;BME280;40747;49.480;8.658;2024-02-23T04:27:55;98454.00;;;7.26;83.59
54854;BME280;40747;49.480;8.658;2024-02-23T04:30:22;98443.97;;;7.17;80.76
54854;BME280;40747;49.480;8.658;2024-02-23T04:32:47;98444.13;;;7.14;80.49
54854;BME280;40747;49.480;8.658;2024-02-23T04:35:14;98454.31;;;7.20;80.78
54854;BME280;40747;49.480;8.658;2024-02-23T04:37:44;98455.31;;;7.17;81.26
54854;BME280;40747;49.480;8.658;2024-02-23T04:40:11;98461.56;;;7.15;82.03
54854;BME280;40747;49.480;8.658;2024-02-23T04:42:37;98456.59;;;7.09;83.05
54854;BME280;40747;49.480;8.658;2024-02-23T04:45:04;98449.50;;;7.11;82.70
54854;BME280;40747;49.480;8.658;2024-02-23T04:47:30;98449.16;;;6.99;82.21
54854;BME280;40747;49.480;8.658;2024-02-23T04:49:55;98452.91;;;6.94;81.32
54854;BME280;40747;49.480;8.658;2024-02-23T04:52:21;98460.47;;;6.81;80.75
54854;BME280;40747;49.480;8.658;2024-02-23T04:54:47;98457.94;;;6.79;79.81
54854;BME280;40747;49.480;8.658;2024-02-23T04:57:13;98453.81;;;6.73;79.86
54854;BME280;40747;49.480;8.658;2024-02-23T04:59:39;98447.81;;;6.71;80.32
54854;BME280;40747;49.480;8.658;2024-02-23T05:02:06;98442.34;;;6.76;80.38
54854;BME280;40747;49.480;8.658;2024-02-23T05:04:32;98417.53;;;6.66;80.23
54854;BME280;40747;49.480;8.658;2024-02-23T05:06:59;98447.22;;;6.65;79.75
54854;BME280;40747;49.480;8.658;2024-02-23T05:09:25;98436.81;;;6.63;80.09
54854;BME280;40747;49.480;8.658;2024-02-23T05:11:52;98441.41;;;6.58;80.78
54854;BME280;40747;49.480;8.658;2024-02-23T05:14:18;98448.63;;;6.53;79.68
54854;BME280;40747;49.480;8.658;2024-02-23T05:16:44;98409.59;;;6.28;80.53
54854;BME280;40747;49.480;8.658;2024-02-23T05:19:10;98442.53;;;6.52;81.77
54854;BME280;40747;49.480;8.658;2024-02-23T05:21:37;98450.44;;;6.51;82.63
54854;BME280;40747;49.480;8.658;2024-02-23T05:24:03;98451.56;;;6.45;83.28
54854;BME280;40747;49.480;8.658;2024-02-23T05:26:31;98459.59;;;6.40;83.67
54854;BME280;40747;49.480;8.658;2024-02-23T05:28:57;98454.38;;;6.40;84.58
54854;BME280;40747;49.480;8.658;2024-02-23T05:31:43;98461.03;;;6.48;84.03
54854;BME280;40747;49.480;8.658;2024-02-23T05:34:10;98455.50;;;6.35;84.45
54854;BME280;40747;49.480;8.658;2024-02-23T05:36:36;98447.84;;;6.30;84.25
54854;BME280;40747;49.480;8.658;2024-02-23T05:39:01;98453.06;;;6.30;84.45
54854;BME280;40747;49.480;8.658;2024-02-23T05:41:27;98455.56;;;6.33;85.25
54854;BME280;40747;49.480;8.658;2024-02-23T05:43:53;98459.56;;;6.21;83.90
54854;BME280;40747;49.480;8.658;2024-02-23T05:46:19;98467.94;;;6.30;85.28
54854;BME280;40747;49.480;8.658;2024-02-23T05:48:46;98468.06;;;6.27;85.33
54854;BME280;40747;49.480;8.658;2024-02-23T05:51:12;98468.06;;;6.27;84.14
54854;BME280;40747;49.480;8.658;2024-02-23T05:53:38;98470.47;;;6.31;83.89
54854;BME280;40747;49.480;8.658;2024-02-23T05:56:04;98472.19;;;6.32;83.68
54854;BME280;40747;49.480;8.658;2024-02-23T05:58:31;98483.28;;;6.37;83.60
54854;BME280;40747;49.480;8.658;2024-02-23T06:00:57;98484.41;;;6.32;83.52
54854;BME280;40747;49.480;8.658;2024-02-23T06:03:23;98489.09;;;6.23;83.26
54854;BME280;40747;49.480;8.658;2024-02-23T06:05:49;98488.78;;;6.31;83.84
54854;BME280;40747;49.480;8.658;2024-02-23T06:08:15;98495.13;;;6.26;83.04
54854;BME280;40747;49.480;8.658;2024-02-23T06:10:41;98491.84;;;6.20;83.86
54854;BME280;40747;49.480;8.658;2024-02-23T06:13:08;98490.81;;;6.25;84.47
54854;BME280;40747;49.480;8.658;2024-02-23T06:15:34;98506.41;;;6.26;84.11
54854;BME280;40747;49.480;8.658;2024-02-23T06:18:01;98505.91;;;6.18;83.88
54854;BME280;40747;49.480;8.658;2024-02-23T06:20:27;98509.34;;;6.18;83.66
54854;BME280;40747;49.480;8.658;2024-02-23T06:22:54;98498.72;;;6.23;83.99
54854;BME280;40747;49.480;8.658;2024-02-23T06:25:20;98501.59;;;6.17;82.85
54854;BME280;40747;49.480;8.658;2024-02-23T06:27:47;98506.88;;;6.15;83.33
54854;BME280;40747;49.480;8.658;2024-02-23T06:30:13;98502.25;;;6.22;82.53
54854;BME280;40747;49.480;8.658;2024-02-23T06:32:39;98502.88;;;6.06;81.91
54854;BME280;40747;49.480;8.658;2024-02-23T06:35:05;98494.78;;;6.13;82.08
54854;BME280;40747;49.480;8.658;2024-02-23T06:37:33;98501.97;;;6.07;82.32
54854;BME280;40747;49.480;8.658;2024-02-23T06:39:59;98504.69;;;6.04;81.30
54854;BME280;40747;49.480;8.658;2024-02-23T06:42:25;98514.00;;;6.12;81.86
54854;BME280;40747;49.480;8.658;2024-02-23T06:44:52;98509.94;;;6.04;81.49
54854;BME280;40747;49.480;8.658;2024-02-23T06:47:19;98501.31;;;6.02;81.20
54854;BME280;40747;49.480;8.658;2024-02-23T06:49:46;98504.03;;;5.99;82.09
54854;BME280;40747;49.480;8.658;2024-02-23T06:52:11;98506.75;;;5.96;81.84
54854;BME280;40747;49.480;8.658;2024-02-23T06:54:37;98504.22;;;5.95;82.03
54854;BME280;40747;49.480;8.658;2024-02-23T06:57:03;98511.09;;;5.97;82.05
54854;BME280;40747;49.480;8.658;2024-02-23T06:59:29;98503.59;;;5.88;83.23
54854;BME280;40747;49.480;8.658;2024-02-23T07:01:55;98502.28;;;5.78;80.98
54854;BME280;40747;49.480;8.658;2024-02-23T07:04:21;98493.66;;;5.76;81.20
54854;BME280;40747;49.480;8.658;2024-02-23T07:06:48;98501.06;;;5.86;81.87
54854;BME280;40747;49.480;8.658;2024-02-23T07:09:14;98505.31;;;5.89;81.46
54854;BME280;40747;49.480;8.658;2024-02-23T07:11:40;98513.03;;;5.92;81.57
54854;BME280;40747;49.480;8.658;2024-02-23T07:14:08;98505.44;;;5.86;80.79
54854;BME280;40747;49.480;8.658;2024-02-23T07:16:38;98520.06;;;5.90;81.23
54854;BME280;40747;49.480;8.658;2024-02-23T07:19:08;98523.41;;;5.94;81.04
54854;BME280;40747;49.480;8.658;2024-02-23T07:21:35;98526.28;;;5.87;80.20
54854;BME280;40747;49.480;8.658;2024-02-23T07:24:01;98526.69;;;5.77;80.09
54854;BME280;40747;49.480;8.658;2024-02-23T07:26:28;98532.53;;;5.83;81.69
54854;BME280;40747;49.480;8.658;2024-02-23T07:28:55;98538.13;;;5.74;80.39
54854;BME280;40747;49.480;8.658;2024-02-23T07:31:20;98525.25;;;5.69;80.64
54854;BME280;40747;49.480;8.658;2024-02-23T07:33:49;98541.22;;;5.84;81.04
54854;BME280;40747;49.480;8.658;2024-02-23T07:36:17;98543.66;;;5.88;81.73
54854;BME280;40747;49.480;8.658;2024-02-23T07:38:43;98540.19;;;5.88;80.63
54854;BME280;40747;49.480;8.658;2024-02-23T07:41:13;98554.56;;;6.00;81.76
54854;BME280;40747;49.480;8.658;2024-02-23T07:43:40;98546.88;;;5.95;80.56
54854;BME280;40747;49.480;8.658;2024-02-23T07:46:07;98546.38;;;5.85;80.11
54854;BME280;40747;49.480;8.658;2024-02-23T07:48:36;98548.75;;;5.91;80.57
54854;BME280;40747;49.480;8.658;2024-02-23T07:51:06;98544.19;;;5.97;80.36
54854;BME280;40747;49.480;8.658;2024-02-23T07:53:32;98541.03;;;5.88;79.85
54854;BME280;40747;49.480;8.658;2024-02-23T07:55:59;98550.03;;;6.03;81.75
54854;BME280;40747;49.480;8.658;2024-02-23T07:58:28;98537.25;;;5.96;80.39
54854;BME280;40747;49.480;8.658;2024-02-23T08:04:15;98552.44;;;6.30;79.10
54854;BME280;40747;49.480;8.658;2024-02-23T08:06:42;98558.31;;;6.35;77.90
54854;BME280;40747;49.480;8.658;2024-02-23T08:09:10;98563.13;;;6.46;79.97
54854;BME280;40747;49.480;8.658;2024-02-23T08:15:08;98558.69;;;6.69;77.42
54854;BME280;40747;49.480;8.658;2024-02-23T08:17:33;98556.09;;;6.67;76.22
54854;BME280;40747;49.480;8.658;2024-02-23T08:19:58;98558.41;;;6.75;75.21
54854;BME280;40747;49.480;8.658;2024-02-23T08:22:24;98565.91;;;6.83;75.56
54854;BME280;40747;49.480;8.658;2024-02-23T08:24:52;98572.06;;;7.02;75.11
54854;BME280;40747;49.480;8.658;2024-02-23T08:27:19;98567.25;;;7.12;74.03
54854;BME280;40747;49.480;8.658;2024-02-23T08:29:45;98560.91;;;7.18;75.64
54854;BME280;40747;49.480;8.658;2024-02-23T08:32:11;98539.78;;;7.02;74.42
54854;BME280;40747;49.480;8.658;2024-02-23T08:34:38;98550.78;;;7.29;74.53
54854;BME280;40747;49.480;8.658;2024-02-23T08:37:05;98554.94;;;7.14;72.37
54854;BME280;40747;49.480;8.658;2024-02-23T08:39:30;98552.06;;;7.20;73.36
54854;BME280;40747;49.480;8.658;2024-02-23T08:41:56;98545.47;;;7.31;72.30
54854;BME280;40747;49.480;8.658;2024-02-23T08:44:23;98547.59;;;7.42;72.25
54854;BME280;40747;49.480;8.658;2024-02-23T08:46:49;98547.94;;;7.53;72.80
54854;BME280;40747;49.480;8.658;2024-02-23T08:49:15;98539.16;;;7.54;71.30
54854;BME280;40747;49.480;8.658;2024-02-23T08:51:41;98528.03;;;7.68;73.97
54854;BME280;40747;49.480;8.658;2024-02-23T08:54:07;98526.66;;;7.78;73.20
54854;BME280;40747;49.480;8.658;2024-02-23T08:56:40;98528.53;;;7.94;72.71
54854;BME280;40747;49.480;8.658;2024-02-23T08:59:08;98516.94;;;7.99;71.47
54854;BME280;40747;49.480;8.658;2024-02-23T09:01:35;98515.75;;;8.05;72.83
54854;BME280;40747;49.480;8.658;2024-02-23T09:04:02;98507.19;;;8.01;71.70
54854;BME280;40747;49.480;8.658;2024-02-23T09:06:28;98516.16;;;8.15;72.27
54854;BME280;40747;49.480;8.658;2024-02-23T09:08:54;98519.72;;;8.14;71.32
54854;BME280;40747;49.480;8.658;2024-02-23T09:11:20;98513.47;;;8.16;71.42
54854;BME280;40747;49.480;8.658;2024-02-23T09:13:46;98510.53;;;8.23;69.76
54854;BME280;40747;49.480;8.658;2024-02-23T09:16:12;98514.13;;;8.37;70.00
54854;BME280;40747;49.480;8.658;2024-02-23T09:18:40;98489.69;;;8.37;70.04
54854;BME280;40747;49.480;8.658;2024-02-23T09:21:06;98510.63;;;8.56;70.87
54854;BME280;40747;49.480;8.658;2024-02-23T09:23:32;98510.13;;;8.65;69.82
54854;BME280;40747;49.480;8.658;2024-02-23T09:25:59;98504.69;;;8.86;69.31
54854;BME280;40747;49.480;8.658;2024-02-23T09:28:25;98500.44;;;8.83;68.70
54854;BME280;40747;49.480;8.658;2024-02-23T09:30:51;98495.75;;;8.90;68.81
54854;BME280;40747;49.480;8.658;2024-02-23T09:33:16;98497.88;;;8.99;67.29
54854;BME280;40747;49.480;8.658;2024-02-23T09:35:43;98491.97;;;9.28;66.56
54854;BME280;40747;49.480;8.658;2024-02-23T09:38:09;98487.56;;;9.28;65.84
54854;BME280;40747;49.480;8.658;2024-02-23T09:40:35;98491.59;;;9.82;66.53
54854;BME280;40747;49.480;8.658;2024-02-23T09:43:02;98495.56;;;10.05;64.56
54854;BME280;40747;49.480;8.658;2024-02-23T09:45:29;98493.97;;;10.03;63.18
54854;BME280;40747;49.480;8.658;2024-02-23T09:47:57;98506.59;;;10.26;63.83
54854;BME280;40747;49.480;8.658;2024-02-23T09:50:24;98496.16;;;9.94;63.03
54854;BME280;40747;49.480;8.658;2024-02-23T09:52:50;98497.31;;;10.05;63.06
54854;BME280;40747;49.480;8.658;2024-02-23T09:55:21;98475.69;;;9.99;63.20
54854;BME280;40747;49.480;8.658;2024-02-23T09:57:48;98506.03;;;10.21;64.68
54854;BME280;40747;49.480;8.658;2024-02-23T10:00:17;98504.59;;;10.15;62.61
54854;BME280;40747;49.480;8.658;2024-02-23T10:02:44;98497.50;;;10.02;62.00
54854;BME280;40747;49.480;8.658;2024-02-23T10:05:10;98500.84;;;9.89;63.33
54854;BME280;40747;49.480;8.658;2024-02-23T10:07:36;98490.56;;;9.84;62.71
54854;BME280;40747;49.480;8.658;2024-02-23T10:10:07;98496.88;;;10.12;63.57
54854;BME280;40747;49.480;8.658;2024-02-23T10:12:34;98504.91;;;10.41;64.01
54854;BME280;40747;49.480;8.658;2024-02-23T10:15:02;98504.09;;;10.70;62.93
54854;BME280;40747;49.480;8.658;2024-02-23T10:17:32;98501.44;;;10.84;61.11
54854;BME280;40747;49.480;8.658;2024-02-23T10:20:01;98511.00;;;10.42;61.16
54854;BME280;40747;49.480;8.658;2024-02-23T10:22:31;98507.03;;;10.35;62.78
54854;BME280;40747;49.480;8.658;2024-02-23T10:24:57;98508.75;;;10.20;61.91
54854;BME280;40747;49.480;8.658;2024-02-23T10:27:24;98498.47;;;10.15;62.79
54854;BME280;40747;49.480;8.658;2024-02-23T10:29:50;98502.75;;;10.62;62.67
54854;BME280;40747;49.480;8.658;2024-02-23T10:32:18;98511.06;;;11.14;63.24
54854;BME280;40747;49.480;8.658;2024-02-23T10:34:47;98505.53;;;10.90;61.25
54854;BME280;40747;49.480;8.658;2024-02-23T10:37:16;98523.91;;;10.61;61.30
54854;BME280;40747;49.480;8.658;2024-02-23T10:39:43;98463.09;;;10.21;61.34
54854;BME280;40747;49.480;8.658;2024-02-23T10:42:12;98512.13;;;10.38;62.15
54854;BME280;40747;49.480;8.658;2024-02-23T10:44:40;98511.31;;;10.52;62.62
54854;BME280;40747;49.480;8.658;2024-02-23T10:47:07;98520.59;;;10.43;61.65
54854;BME280;40747;49.480;8.658;2024-02-23T10:49:34;98521.63;;;10.40;61.44
54854;BME280;40747;49.480;8.658;2024-02-23T10:52:01;98508.94;;;10.47;62.37
54854;BME280;40747;49.480;8.658;2024-02-23T10:54:28;98511.41;;;10.50;61.54
54854;BME280;40747;49.480;8.658;2024-02-23T10:56:55;98510.22;;;10.85;61.76
54854;BME280;40747;49.480;8.658;2024-02-23T10:59:21;98492.78;;;11.11;61.30
54854;BME280;40747;49.480;8.658;2024-02-23T11:01:50;98483.38;;;11.36;60.53
54854;BME280;40747;49.480;8.658;2024-02-23T11:04:17;98503.03;;;11.30;59.80
54854;BME280;40747;49.480;8.658;2024-02-23T11:06:52;98505.09;;;11.25;59.83
54854;BME280;40747;49.480;8.658;2024-02-23T11:09:23;98503.25;;;10.98;60.25
54854;BME280;40747;49.480;8.658;2024-02-23T11:11:57;98482.28;;;10.82;60.44
54854;BME280;40747;49.480;8.658;2024-02-23T11:14:35;98493.75;;;10.95;61.24
54854;BME280;40747;49.480;8.658;2024-02-23T11:17:02;98484.69;;;10.99;61.71
54854;BME280;40747;49.480;8.658;2024-02-23T11:19:36;98482.81;;;11.30;60.93
54854;BME280;40747;49.480;8.658;2024-02-23T11:22:03;98470.75;;;11.26;59.16
54854;BME280;40747;49.480;8.658;2024-02-23T11:24:31;98469.16;;;11.38;59.95
54854;BME280;40747;49.480;8.658;2024-02-23T11:26:59;98464.31;;;11.45;58.75
54854;BME280;40747;49.480;8.658;2024-02-23T11:29:30;98473.94;;;11.31;59.25
54854;BME280;40747;49.480;8.658;2024-02-23T11:31:58;98479.38;;;11.43;61.06
54854;BME280;40747;49.480;8.658;2024-02-23T11:34:30;98463.69;;;11.27;58.41
54854;BME280;40747;49.480;8.658;2024-02-23T11:36:57;98476.25;;;11.09;59.48
54854;BME280;40747;49.480;8.658;2024-02-23T11:39:26;98474.56;;;11.08;59.26
54854;BME280;40747;49.480;8.658;2024-02-23T11:41:53;98468.16;;;10.97;59.46
54854;BME280;40747;49.480;8.658;2024-02-23T11:44:19;98469.50;;;10.61;60.87
54854;BME280;40747;49.480;8.658;2024-02-23T11:46:48;98460.63;;;10.62;60.92
54854;BME280;40747;49.480;8.658;2024-02-23T11:49:15;98451.22;;;10.58;61.36
54854;BME280;40747;49.480;8.658;2024-02-23T11:51:41;98456.00;;;10.07;63.81
54854;BME280;40747;49.480;8.658;2024-02-23T11:54:08;98453.53;;;10.04;62.93
54854;BME280;40747;49.480;8.658;2024-02-23T11:56:34;98456.97;;;9.90;62.89
54854;BME280;40747;49.480;8.658;2024-02-23T11:59:01;98468.03;;;9.80;64.01
54854;BME280;40747;49.480;8.658;2024-02-23T12:01:30;98468.22;;;9.61;64.52
54854;BME280;40747;49.480;8.658;2024-02-23T12:03:57;98465.44;;;9.64;65.51
54854;BME280;40747;49.480;8.658;2024-02-23T12:06:24;98465.16;;;9.69;63.72
54854;BME280;40747;49.480;8.658;2024-02-23T12:08:55;98475.94;;;9.64;64.35
54854;BME280;40747;49.480;8.658;2024-02-23T12:11:21;98460.94;;;9.50;66.09
54854;BME280;40747;49.480;8.658;2024-02-23T12:13:48;98459.59;;;9.43;69.26
54854;BME280;40747;49.480;8.658;2024-02-23T12:16:17;98461.66;;;9.22;71.66
54854;BME280;40747;49.480;8.658;2024-02-23T12:18:43;98462.66;;;9.20;69.85
54854;BME280;40747;49.480;8.658;2024-02-23T12:21:10;98458.16;;;9.06;69.43
54854;BME280;40747;49.480;8.658;2024-02-23T12:23:46;98474.34;;;9.14;70.63
54854;BME280;40747;49.480;8.658;2024-02-23T12:26:16;98475.19;;;9.14;72.73
54854;BME280;40747;49.480;8.658;2024-02-23T12:28:44;98461.88;;;9.17;74.06
54854;BME280;40747;49.480;8.658;2024-02-23T12:31:11;98446.72;;;9.07;75.13
54854;BME280;40747;49.480;8.658;2024-02-23T12:33:40;98451.97;;;9.07;75.62
54854;BME280;40747;49.480;8.658;2024-02-23T12:36:07;98453.16;;;9.17;73.92
54854;BME280;40747;49.480;8.658;2024-02-23T12:38:35;98434.25;;;9.26;73.69
54854;BME280;40747;49.480;8.658;2024-02-23T12:41:02;98451.81;;;9.42;73.38
54854;BME280;40747;49.480;8.658;2024-02-23T12:43:29;98464.69;;;9.46;72.15
54854;BME280;40747;49.480;8.658;2024-02-23T12:45:55;98466.53;;;9.44;71.35
54854;BME280;40747;49.480;8.658;2024-02-23T12:48:22;98469.69;;;9.35;70.90
54854;BME280;40747;49.480;8.658;2024-02-23T12:50:49;98464.59;;;9.16;72.51
54854;BME280;40747;49.480;8.658;2024-02-23T12:53:39;98464.16;;;8.92;72.80
54854;BME280;40747;49.480;8.658;2024-02-23T12:56:06;98458.91;;;9.08;74.49
54854;BME280;40747;49.480;8.658;2024-02-23T12:58:41;98455.84;;;8.99;75.42
54854;BME280;40747;49.480;8.658;2024-02-23T13:01:08;98462.50;;;9.07;74.93
54854;BME280;40747;49.480;8.658;2024-02-23T13:03:35;98453.41;;;9.28;74.85
54854;BME280;40747;49.480;8.658;2024-02-23T13:06:03;98446.91;;;9.20;77.27
54854;BME280;40747;49.480;8.658;2024-02-23T13:08:30;98454.00;;;9.17;76.69
54854;BME280;40747;49.480;8.658;2024-02-23T13:10:56;98452.63;;;9.10;74.62
54854;BME280;40747;49.480;8.658;2024-02-23T13:13:23;98443.66;;;9.46;75.15
54854;BME280;40747;49.480;8.658;2024-02-23T13:15:51;98442.63;;;9.65;73.22